Time;durP1;ratioP1;P1;durP2;ratioP2;P2;SDS_P1;SDS_P2;PMS_P1;PMS_P2;Temp;Humidity;BMP_temperature;BMP_pressure;BME280_temperature;BME280_humidity;BME280_pressure;Samples;Min_cycle;Max_cycle;Signal;HPM_P1;HPM_P2
2023/04/07 00:00:14;;;;;;;6.43;1.95;;;5.00;99.90;;;;;;4920196;29;20055;-83
2023/04/07 00:02:41;;;;;;;10.00;2.05;;;4.90;99.90;;;;;;4946909;29;20122;-83
2023/04/07 00:05:10;;;;;;;7.38;2.17;;;4.90;99.90;;;;;;4959271;28;20106;-82
2023/04/07 00:07:37;;;;;;;7.93;2.65;;;4.90;99.90;;;;;;4945335;29;20089;-84
2023/04/07 00:10:21;;;;;;;5.65;2.05;;;4.90;99.90;;;;;;4932367;29;20043;-82
2023/04/07 00:12:47;;;;;;;6.05;2.28;;;4.80;99.90;;;;;;4929069;29;20044;-82
2023/04/07 00:15:14;;;;;;;5.13;1.90;;;4.70;99.90;;;;;;4930121;29;20474;-83
2023/04/07 00:17:41;;;;;;;6.38;2.33;;;4.70;99.90;;;;;;4945967;29;20048;-84
2023/04/07 00:20:08;;;;;;;4.47;2.08;;;4.70;99.90;;;;;;4944196;29;20693;-84
2023/04/07 00:22:34;;;;;;;6.88;2.35;;;4.60;99.90;;;;;;4930610;29;20039;-82
2023/04/07 00:25:02;;;;;;;9.35;2.17;;;4.60;99.90;;;;;;4946049;29;20042;-82
2023/04/07 00:27:29;;;;;;;9.05;2.60;;;4.50;99.90;;;;;;4962040;29;20043;-83
2023/04/07 00:29:56;;;;;;;8.68;2.00;;;4.50;99.90;;;;;;4945840;29;20047;-83
2023/04/07 00:32:23;;;;;;;14.98;2.42;;;4.60;99.90;;;;;;4962544;28;20347;-84
2023/04/07 00:34:50;;;;;;;7.13;2.05;;;4.60;99.90;;;;;;4929198;29;20039;-83
2023/04/07 00:37:18;;;;;;;4.75;1.83;;;4.70;99.90;;;;;;4945781;29;20046;-85
2023/04/07 00:39:45;;;;;;;7.57;2.15;;;4.70;99.90;;;;;;4944898;28;20422;-83
2023/04/07 00:42:12;;;;;;;8.27;1.80;;;4.70;99.90;;;;;;4929704;29;20050;-84
2023/04/07 00:44:39;;;;;;;6.10;2.00;;;4.70;99.90;;;;;;4945636;29;20047;-84
2023/04/07 00:47:07;;;;;;;10.98;2.42;;;4.60;99.90;;;;;;4929190;29;20386;-83
2023/04/07 00:49:33;;;;;;;5.63;1.98;;;4.60;99.90;;;;;;4945700;29;20118;-83
2023/04/07 00:52:00;;;;;;;7.03;2.63;;;4.60;99.90;;;;;;4929520;29;20043;-83
2023/04/07 00:54:28;;;;;;;12.40;2.40;;;4.70;99.90;;;;;;4944875;29;20505;-84
2023/04/07 00:56:56;;;;;;;8.02;2.20;;;4.60;99.90;;;;;;4945627;29;20047;-83
2023/04/07 00:59:23;;;;;;;5.80;2.70;;;4.60;99.90;;;;;;4944748;29;20134;-84
2023/04/07 01:01:49;;;;;;;6.18;2.38;;;4.60;99.90;;;;;;4945334;29;20070;-82
2023/04/07 01:07:02;;;;;;;8.20;2.08;;;4.60;99.90;;;;;;4944677;29;20047;-82
2023/04/07 01:09:36;;;;;;;6.78;2.45;;;4.60;99.90;;;;;;4930663;29;20470;-83
2023/04/07 01:12:03;;;;;;;10.50;2.63;;;4.60;99.90;;;;;;4929730;29;20486;-83
2023/04/07 01:14:32;;;;;;;5.47;1.88;;;4.60;99.90;;;;;;4944567;28;20043;-83
2023/04/07 01:17:06;;;;;;;7.63;2.28;;;4.50;99.90;;;;;;4927501;29;20062;-82
2023/04/07 01:19:33;;;;;;;5.97;2.25;;;4.60;99.90;;;;;;4925749;29;20039;-83
2023/04/07 01:22:00;;;;;;;5.65;2.00;;;4.70;99.90;;;;;;4926598;29;20451;-82
2023/04/07 01:24:28;;;;;;;7.72;2.00;;;4.70;99.90;;;;;;4942805;29;20381;-83
2023/04/07 01:26:56;;;;;;;7.90;2.53;;;4.70;99.90;;;;;;4941665;29;20057;-83
2023/04/07 01:29:23;;;;;;;6.50;2.00;;;4.70;99.90;;;;;;4942349;29;20079;-83
2023/04/07 01:31:50;;;;;;;7.75;2.28;;;4.70;99.90;;;;;;4926124;29;20043;-82
2023/04/07 01:34:20;;;;;;;5.22;2.20;;;4.70;99.90;;;;;;4925662;29;20130;-83
2023/04/07 01:36:46;;;;;;;11.82;2.17;;;4.70;99.90;;;;;;4942138;29;20106;-82
2023/04/07 01:39:13;;;;;;;5.78;1.98;;;4.60;99.90;;;;;;4925443;29;20068;-82
2023/04/07 01:41:40;;;;;;;6.85;1.90;;;4.60;99.90;;;;;;4941592;29;20546;-83
2023/04/07 01:44:08;;;;;;;5.80;2.05;;;4.50;99.90;;;;;;4926258;29;20429;-82
2023/04/07 01:46:34;;;;;;;12.13;2.15;;;4.60;99.90;;;;;;4940998;29;20066;-82
2023/04/07 01:49:01;;;;;;;7.00;2.25;;;4.50;99.90;;;;;;4926159;29;20051;-83
2023/04/07 01:51:28;;;;;;;5.47;1.90;;;4.50;99.90;;;;;;4941751;29;20149;-82
2023/04/07 01:53:57;;;;;;;7.18;2.05;;;4.50;99.90;;;;;;4941446;29;20481;-82
2023/04/07 01:56:23;;;;;;;11.27;2.00;;;4.50;99.90;;;;;;4927020;29;20044;-82
2023/04/07 01:58:52;;;;;;;16.23;2.15;;;4.40;99.90;;;;;;4927274;29;20138;-83
2023/04/07 02:01:21;;;;;;;5.38;2.00;;;4.40;99.90;;;;;;4925540;29;20110;-83
2023/04/07 02:03:49;;;;;;;5.75;1.83;;;4.30;99.90;;;;;;4907192;29;20052;-83
2023/04/07 02:06:17;;;;;;;5.35;1.60;;;4.30;99.90;;;;;;4936485;29;20043;-83
2023/04/07 02:08:43;;;;;;;9.35;2.20;;;4.30;99.90;;;;;;4942035;29;20047;-83
2023/04/07 02:11:10;;;;;;;8.10;2.03;;;4.30;99.90;;;;;;4941501;29;20043;-82
2023/04/07 02:13:38;;;;;;;5.45;1.70;;;4.30;99.90;;;;;;4924880;29;20074;-82
2023/04/07 02:16:08;;;;;;;5.78;1.70;;;4.30;99.90;;;;;;4941512;29;20074;-83
2023/04/07 02:18:35;;;;;;;10.95;1.85;;;4.30;99.90;;;;;;4941487;29;20077;-83
2023/04/07 02:21:02;;;;;;;6.10;1.70;;;4.30;99.90;;;;;;4940698;29;20043;-82
2023/04/07 02:26:14;;;;;;;6.03;1.92;;;4.20;99.90;;;;;;4957642;29;20497;-82
2023/04/07 02:28:41;;;;;;;4.05;1.58;;;4.10;99.90;;;;;;4940840;29;20051;-82
2023/04/07 02:31:08;;;;;;;11.82;1.90;;;4.10;99.90;;;;;;4941059;29;20039;-83
2023/04/07 02:33:35;;;;;;;5.38;1.90;;;4.10;99.90;;;;;;4940248;29;20054;-82
2023/04/07 02:36:02;;;;;;;5.97;1.52;;;4.10;99.90;;;;;;4925443;29;20043;-82
2023/04/07 02:38:28;;;;;;;7.07;1.75;;;4.10;99.90;;;;;;4925250;29;20043;-82
2023/04/07 02:40:55;;;;;;;6.32;1.77;;;4.10;99.90;;;;;;4939926;28;20051;-82
2023/04/07 02:43:22;;;;;;;5.68;1.80;;;4.00;99.90;;;;;;4940777;29;20066;-82
2023/04/07 02:45:52;;;;;;;3.63;1.58;;;4.00;99.90;;;;;;4941083;29;20043;-82
2023/04/07 02:48:19;;;;;;;6.35;1.67;;;4.00;99.90;;;;;;4940702;29;20046;-81
2023/04/07 02:50:45;;;;;;;5.38;1.90;;;3.90;99.90;;;;;;4925010;29;20051;-83
2023/04/07 02:53:13;;;;;;;10.45;1.92;;;3.90;99.90;;;;;;4924013;29;20047;-82
2023/04/07 02:55:40;;;;;;;5.28;1.60;;;4.00;99.90;;;;;;4940676;29;20053;-82
2023/04/07 02:58:07;;;;;;;7.00;1.77;;;4.00;99.90;;;;;;4924870;29;20134;-82
2023/04/07 03:00:38;;;;;;;8.00;2.28;;;4.00;99.90;;;;;;4939736;29;20538;-83
2023/04/07 03:03:11;;;;;;;3.92;1.50;;;3.90;99.90;;;;;;4925134;29;20390;-81
2023/04/07 03:05:41;;;;;;;4.38;1.83;;;3.90;99.90;;;;;;4925564;29;20051;-82
2023/04/07 03:08:10;;;;;;;10.15;1.88;;;4.00;99.90;;;;;;4924048;29;20043;-82
2023/04/07 03:10:39;;;;;;;6.68;1.63;;;3.90;99.90;;;;;;4940452;29;20093;-82
2023/04/07 03:13:07;;;;;;;6.22;1.85;;;4.00;99.90;;;;;;4939219;29;20133;-82
2023/04/07 03:15:35;;;;;;;4.57;1.75;;;3.90;99.90;;;;;;4940376;29;20051;-81
2023/04/07 03:18:02;;;;;;;7.00;1.73;;;3.90;99.90;;;;;;4940306;29;20094;-83
2023/04/07 03:20:29;;;;;;;4.57;1.83;;;4.00;99.90;;;;;;4923823;29;20417;-81
2023/04/07 03:23:01;;;;;;;3.70;1.50;;;3.90;99.90;;;;;;4925220;29;20048;-81
2023/04/07 03:25:29;;;;;;;6.57;1.50;;;3.90;99.90;;;;;;4924657;29;20047;-83
2023/04/07 03:27:56;;;;;;;4.85;1.70;;;3.90;99.90;;;;;;4923705;29;20446;-82
2023/04/07 03:30:25;;;;;;;7.80;2.08;;;3.90;99.90;;;;;;4924937;29;20138;-83
2023/04/07 03:32:52;;;;;;;13.13;1.70;;;3.90;99.90;;;;;;4923267;29;20039;-82
2023/04/07 03:35:19;;;;;;;6.20;2.03;;;3.90;99.90;;;;;;4939977;29;20058;-83
2023/04/07 03:37:45;;;;;;;12.75;2.35;;;3.90;99.90;;;;;;4957067;29;20050;-83
2023/04/07 03:40:15;;;;;;;4.18;1.50;;;4.10;99.90;;;;;;4922902;29;20125;-81
2023/04/07 03:42:43;;;;;;;8.82;2.20;;;4.20;99.90;;;;;;4939681;29;20053;-82
2023/04/07 03:47:58;;;;;;;7.07;2.00;;;4.40;99.90;;;;;;4955870;29;20077;-82
2023/04/07 03:50:25;;;;;;;4.32;1.45;;;4.50;99.90;;;;;;4940175;29;20058;-82
2023/04/07 03:55:49;;;;;;;11.50;2.07;;;4.60;99.90;;;;;;4939802;29;20050;-82
2023/04/07 03:58:25;;;;;;;4.85;1.60;;;4.70;99.90;;;;;;4926043;29;20494;-82
2023/04/07 04:00:52;;;;;;;4.93;1.58;;;4.80;99.90;;;;;;4923177;29;20147;-82
2023/04/07 04:03:19;;;;;;;8.25;2.05;;;4.90;99.90;;;;;;4920445;29;20059;-83
2023/04/07 04:05:58;;;;;;;7.10;2.00;;;4.90;99.90;;;;;;4921618;29;20063;-83
2023/04/07 04:08:28;;;;;;;4.70;1.80;;;5.00;99.90;;;;;;4921093;29;20491;-82
2023/04/07 04:10:56;;;;;;;7.88;1.60;;;5.00;99.90;;;;;;4920599;29;20051;-83
2023/04/07 04:13:26;;;;;;;5.45;1.60;;;5.10;99.90;;;;;;4935750;29;20402;-82
2023/04/07 04:15:55;;;;;;;5.70;1.75;;;5.10;99.90;;;;;;4936418;29;20040;-83
2023/04/07 04:18:22;;;;;;;8.13;1.90;;;5.20;99.90;;;;;;4936477;29;20040;-83
2023/04/07 04:20:50;;;;;;;4.55;1.70;;;5.20;99.90;;;;;;4919879;29;20139;-82
2023/04/07 04:23:18;;;;;;;8.63;2.08;;;5.20;99.90;;;;;;4936097;29;20442;-82
2023/04/07 04:25:45;;;;;;;12.90;1.95;;;5.20;99.90;;;;;;4920968;29;20130;-82
2023/04/07 04:28:12;;;;;;;7.07;1.95;;;5.20;99.90;;;;;;4919631;29;20051;-83
2023/04/07 04:30:40;;;;;;;7.60;2.00;;;5.20;99.90;;;;;;4936480;29;20485;-83
2023/04/07 04:33:08;;;;;;;11.00;1.70;;;5.20;99.90;;;;;;4919525;29;20443;-82
2023/04/07 04:35:40;;;;;;;6.88;2.22;;;5.10;99.90;;;;;;4921328;29;20044;-83
2023/04/07 04:38:18;;;;;;;6.35;1.85;;;5.00;99.90;;;;;;4936153;29;20448;-81
2023/04/07 04:40:51;;;;;;;6.68;1.83;;;4.90;99.90;;;;;;4920499;29;20048;-82
2023/04/07 04:43:25;;;;;;;;;;;4.90;99.90;;;;;;4922116;29;20476;-81
2023/04/07 04:45:52;;;;;;;14.20;2.10;;;4.80;99.90;;;;;;4935771;29;19923;-82
2023/04/07 04:48:22;;;;;;;5.95;1.95;;;4.80;99.90;;;;;;4921820;29;20051;-83
2023/04/07 04:50:49;;;;;;;7.13;2.20;;;4.70;99.90;;;;;;4920927;29;20066;-82
2023/04/07 04:53:16;;;;;;;5.30;1.80;;;4.60;99.90;;;;;;4938843;29;20055;-83
2023/04/07 04:55:52;;;;;;;13.15;2.25;;;4.50;99.90;;;;;;4925498;29;20458;-82
2023/04/07 04:58:31;;;;;;;7.15;1.98;;;4.40;99.90;;;;;;4939614;29;20530;-82
2023/04/07 05:00:59;;;;;;;6.35;2.30;;;4.40;99.90;;;;;;4938454;29;20082;-81
2023/04/07 05:03:35;;;;;;;7.57;1.90;;;4.40;99.90;;;;;;4924980;29;20505;-82
2023/04/07 05:06:10;;;;;;;6.13;2.00;;;4.40;99.90;;;;;;4939410;29;20168;-81
2023/04/07 05:08:38;;;;;;;8.40;1.80;;;4.40;99.90;;;;;;4939401;29;20051;-82
2023/04/07 05:11:05;;;;;;;5.88;1.85;;;4.30;99.90;;;;;;4923394;29;20051;-82
2023/04/07 05:13:35;;;;;;;4.35;1.60;;;4.30;99.90;;;;;;4923263;29;20127;-83
2023/04/07 05:16:03;;;;;;;6.47;2.30;;;4.20;99.90;;;;;;4923766;29;20040;-83
2023/04/07 05:18:30;;;;;;;8.52;2.20;;;4.20;99.90;;;;;;4923516;29;20036;-82
2023/04/07 05:20:57;;;;;;;9.65;2.20;;;4.10;99.90;;;;;;4922598;29;20119;-82
2023/04/07 05:23:26;;;;;;;6.95;1.88;;;4.10;99.90;;;;;;4923616;29;20071;-82
2023/04/07 05:25:53;;;;;;;5.25;1.70;;;4.10;99.90;;;;;;4938257;29;20064;-83
2023/04/07 05:28:20;;;;;;;4.72;1.80;;;4.10;99.90;;;;;;4923300;29;20374;-82
2023/04/07 05:30:48;;;;;;;6.75;1.75;;;4.00;99.90;;;;;;4923807;29;20382;-82
2023/04/07 05:33:16;;;;;;;7.55;2.10;;;4.00;99.90;;;;;;4922151;29;20366;-83
2023/04/07 05:35:46;;;;;;;10.07;2.05;;;4.10;99.90;;;;;;4923802;29;20059;-82
2023/04/07 05:38:15;;;;;;;10.85;2.15;;;4.10;99.90;;;;;;4923265;29;20047;-83
2023/04/07 05:40:42;;;;;;;4.60;1.70;;;4.10;99.90;;;;;;4922657;29;20067;-82
2023/04/07 05:43:15;;;;;;;8.43;2.08;;;4.10;99.90;;;;;;4923894;29;20134;-83
2023/04/07 05:45:42;;;;;;;6.82;1.98;;;4.20;99.90;;;;;;4923123;29;20055;-83
2023/04/07 05:48:10;;;;;;;6.32;1.92;;;4.30;99.90;;;;;;4922301;29;20048;-82
2023/04/07 05:50:41;;;;;;;11.93;2.72;;;4.30;99.90;;;;;;4924011;29;20052;-83
2023/04/07 05:53:14;;;;;;;5.75;2.00;;;4.40;99.90;;;;;;4922342;29;20059;-83
2023/04/07 05:55:40;;;;;;;5.35;2.05;;;4.40;99.90;;;;;;4938587;29;20063;-82
2023/04/07 05:58:10;;;;;;;10.95;2.13;;;4.50;99.90;;;;;;4923132;29;20040;-83
2023/04/07 06:00:39;;;;;;;7.53;2.35;;;4.70;99.90;;;;;;4937624;29;20143;-82
2023/04/07 06:03:10;;;;;;;6.57;2.10;;;4.80;99.90;;;;;;4939849;29;20071;-82
2023/04/07 06:06:03;;;;;;;7.97;2.03;;;4.90;99.90;;;;;;4942453;29;20479;-82
2023/04/07 06:08:30;;;;;;;7.57;1.85;;;5.00;99.90;;;;;;4941471;29;20047;-82
2023/04/07 06:10:57;;;;;;;6.35;1.95;;;5.10;99.90;;;;;;4941196;29;20047;-82
2023/04/07 06:13:24;;;;;;;7.45;1.98;;;5.20;99.90;;;;;;4956521;29;20057;-83
2023/04/07 06:15:51;;;;;;;10.05;2.70;;;5.30;99.90;;;;;;4925646;29;20043;-83
2023/04/07 06:18:18;;;;;;;7.00;2.22;;;5.30;99.90;;;;;;4941427;29;20043;-83
2023/04/07 06:20:45;;;;;;;7.45;2.30;;;5.40;99.90;;;;;;4924794;29;20043;-82
2023/04/07 06:23:12;;;;;;;9.90;2.22;;;5.40;99.90;;;;;;4925529;29;20047;-83
2023/04/07 06:25:39;;;;;;;7.28;1.95;;;5.40;99.90;;;;;;4941231;29;20062;-83
2023/04/07 06:28:05;;;;;;;7.38;1.95;;;5.40;99.90;;;;;;4940356;29;20147;-83
2023/04/07 06:30:32;;;;;;;10.23;2.35;;;5.40;99.90;;;;;;4941690;29;20361;-82
2023/04/07 06:32:59;;;;;;;12.68;2.47;;;5.40;99.90;;;;;;4956903;29;20043;-83
2023/04/07 06:35:26;;;;;;;7.50;2.35;;;5.50;99.90;;;;;;4942421;29;20046;-84
2023/04/07 06:37:53;;;;;;;8.85;1.90;;;5.60;99.90;;;;;;4941889;29;20146;-84
2023/04/07 06:40:20;;;;;;;11.63;2.15;;;5.70;99.90;;;;;;4940308;29;20070;-83
2023/04/07 06:42:46;;;;;;;8.10;2.03;;;5.80;99.90;;;;;;4940828;29;20062;-84
2023/04/07 06:45:24;;;;;;;10.63;2.50;;;5.90;99.90;;;;;;4927254;29;20062;-82
2023/04/07 06:47:50;;;;;;;11.38;2.40;;;5.90;99.90;;;;;;4940272;29;20055;-83
2023/04/07 06:50:19;;;;;;;5.78;2.20;;;6.00;99.90;;;;;;4957907;29;20102;-86
2023/04/07 06:52:46;;;;;;;7.15;2.22;;;6.10;99.90;;;;;;4939279;29;20047;-84
2023/04/07 06:57:59;;;;;;;10.70;2.55;;;6.30;99.90;;;;;;4940768;29;20089;-83
2023/04/07 07:00:29;;;;;;;10.90;2.30;;;6.40;99.90;;;;;;4956840;29;20443;-83
2023/04/07 07:02:55;;;;;;;9.63;2.60;;;6.50;99.90;;;;;;4940192;29;20102;-83
2023/04/07 07:05:24;;;;;;;11.10;2.42;;;6.60;99.90;;;;;;4924894;29;20466;-84
2023/04/07 07:07:51;;;;;;;10.07;2.35;;;6.60;99.90;;;;;;4940119;29;20039;-84
2023/04/07 07:10:19;;;;;;;8.10;2.38;;;6.60;99.90;;;;;;4957305;29;20051;-83
2023/04/07 07:12:46;;;;;;;8.30;2.58;;;6.70;99.90;;;;;;4939205;29;20133;-84
2023/04/07 07:15:16;;;;;;;10.80;2.67;;;6.90;99.90;;;;;;4939983;29;20039;-84
2023/04/07 07:17:42;;;;;;;11.93;2.80;;;7.00;99.90;;;;;;4940388;29;20114;-84
2023/04/07 07:20:09;;;;;;;4.75;1.90;;;7.10;99.90;;;;;;4923846;29;20043;-84
2023/04/07 07:22:36;;;;;;;13.60;2.80;;;7.20;99.90;;;;;;4940111;29;20061;-85
2023/04/07 07:27:52;;;;;;;12.50;2.97;;;7.30;99.90;;;;;;4956575;29;20118;-85
2023/04/07 07:30:19;;;;;;;9.88;2.65;;;7.40;99.90;;;;;;4940515;29;20075;-84
2023/04/07 07:32:45;;;;;;;9.25;2.72;;;7.50;99.90;;;;;;4939421;29;20070;-84
2023/04/07 07:35:12;;;;;;;10.85;2.80;;;7.60;99.90;;;;;;4957284;29;20039;-86
2023/04/07 07:37:39;;;;;;;12.90;2.90;;;7.70;99.90;;;;;;4940240;29;20074;-84
2023/04/07 07:40:05;;;;;;;7.57;2.70;;;7.90;99.90;;;;;;4940741;29;20043;-87
2023/04/07 07:42:32;;;;;;;10.93;2.70;;;7.90;99.90;;;;;;4941074;29;20500;-84
2023/04/07 07:45:00;;;;;;;8.05;2.90;;;8.10;99.90;;;;;;4940463;29;20051;-83
2023/04/07 07:47:27;;;;;;;9.25;2.75;;;8.20;99.90;;;;;;4939217;29;20051;-86
2023/04/07 07:49:53;;;;;;;6.22;2.45;;;8.30;99.90;;;;;;4957379;29;20102;-85
2023/04/07 07:52:20;;;;;;;12.18;2.35;;;8.50;99.90;;;;;;4939799;29;20054;-87
2023/04/07 07:57:21;;;;;;;7.43;2.92;;;8.70;99.90;;;;;;4934516;29;20070;-86
2023/04/07 08:00:12;;;;;;;13.60;2.75;;;8.70;99.90;;;;;;4946360;29;20055;-87
2023/04/07 08:02:54;;;;;;;11.25;3.40;;;8.80;99.90;;;;;;4929035;29;20079;-87
2023/04/07 08:05:49;;;;;;;;;;;;;;;;;;;;;
2023/04/07 08:08:28;;;;;;;17.95;2.67;;;9.10;99.90;;;;;;4879571;29;20045;-88
2023/04/07 08:10:55;;;;;;;11.63;3.92;;;9.20;99.90;;;;;;4848399;29;20052;-85
2023/04/07 08:13:22;;;;;;;8.57;2.30;;;9.20;99.90;;;;;;4863180;29;20049;-87
2023/04/07 08:15:48;;;;;;;12.90;3.20;;;9.30;99.90;;;;;;4878807;29;20079;-88
2023/04/07 08:18:15;;;;;;;12.23;2.85;;;9.60;99.90;;;;;;4858685;29;20117;-86
2023/04/07 08:20:42;;;;;;;7.57;2.45;;;9.70;99.90;;;;;;4848871;29;20058;-87
2023/04/07 08:23:10;;;;;;;9.73;3.03;;;9.70;99.90;;;;;;4874551;29;20066;-86
2023/04/07 08:25:38;;;;;;;11.52;2.90;;;9.90;99.90;;;;;;4864304;29;20068;-87
2023/04/07 08:28:05;;;;;;;7.72;2.58;;;9.90;99.90;;;;;;4851082;29;20124;-88
2023/04/07 08:30:32;;;;;;;8.93;3.05;;;9.90;99.90;;;;;;4852018;29;20369;-85
2023/04/07 08:32:58;;;;;;;9.05;2.88;;;9.90;99.90;;;;;;4866234;29;20049;-85
2023/04/07 08:35:25;;;;;;;11.73;3.03;;;9.90;99.90;;;;;;4855600;29;20424;-83
2023/04/07 08:37:52;;;;;;;11.10;2.95;;;10.00;99.90;;;;;;4920907;29;20387;-84
2023/04/07 08:40:19;;;;;;;12.20;2.75;;;10.30;99.90;;;;;;4904668;29;20392;-84
2023/04/07 08:42:45;;;;;;;12.48;2.90;;;10.60;99.90;;;;;;4920673;29;20483;-88
2023/04/07 08:48:02;;;;;;;17.08;3.33;;;10.80;99.90;;;;;;4920560;29;20051;-89
2023/04/07 08:50:29;;;;;;;11.32;2.78;;;10.90;99.90;;;;;;4922828;29;20091;-88
2023/04/07 08:52:56;;;;;;;10.75;3.03;;;11.00;99.90;;;;;;4920878;29;20383;-91
2023/04/07 08:55:24;;;;;;;9.80;3.00;;;11.20;99.90;;;;;;4907813;29;20044;-89
2023/04/07 08:57:51;;;;;;;9.32;3.50;;;11.40;99.90;;;;;;4921179;29;20375;-89
2023/04/07 09:00:18;;;;;;;8.85;2.90;;;11.40;99.90;;;;;;4904958;29;20052;-87
2023/04/07 09:02:46;;;;;;;9.10;2.75;;;11.40;99.90;;;;;;4920520;29;20067;-88
2023/04/07 09:08:29;;;;;;;8.45;3.00;;;11.60;99.90;;;;;;4939839;29;20031;-88
2023/04/07 09:10:56;;;;;;;15.43;3.00;;;11.70;99.90;;;;;;4924247;29;20055;-85
2023/04/07 09:13:23;;;;;;;10.35;2.65;;;11.80;99.90;;;;;;4923519;29;20102;-86
2023/04/07 09:15:50;;;;;;;7.20;3.05;;;11.80;99.90;;;;;;4924366;29;20098;-86
2023/04/07 09:18:17;;;;;;;13.07;2.85;;;12.00;99.90;;;;;;4922518;29;20039;-89
2023/04/07 09:20:44;;;;;;;11.15;2.65;;;12.10;99.90;;;;;;4904813;29;20095;-88
2023/04/07 09:23:12;;;;;;;7.97;2.60;;;12.10;99.90;;;;;;4921514;29;20044;-85
2023/04/07 09:25:38;;;;;;;10.43;2.70;;;12.10;99.90;;;;;;4923741;29;20054;-88
2023/04/07 09:28:05;;;;;;;8.20;2.97;;;12.20;99.90;;;;;;4939283;29;20142;-89
2023/04/07 09:30:32;;;;;;;8.40;3.33;;;12.40;99.90;;;;;;4924437;29;20055;-87
2023/04/07 09:32:59;;;;;;;9.70;2.78;;;12.40;99.90;;;;;;4939084;29;20083;-89
2023/04/07 09:35:27;;;;;;;8.77;2.75;;;12.50;99.90;;;;;;4926746;29;20043;-89
2023/04/07 09:37:54;;;;;;;10.40;2.90;;;12.60;99.90;;;;;;4940056;29;20058;-88
2023/04/07 09:40:21;;;;;;;7.65;2.85;;;12.60;99.90;;;;;;4941461;29;20048;-87
2023/04/07 09:42:48;;;;;;;9.82;2.42;;;12.70;99.90;;;;;;4942192;29;20087;-87
2023/04/07 09:48:05;;;;;;;10.95;2.80;;;13.00;99.90;;;;;;4941642;29;20132;-88
2023/04/07 09:50:33;;;;;;;6.93;2.53;;;13.20;99.90;;;;;;4940410;29;20238;-88
2023/04/07 09:55:47;;;;;;;13.02;2.70;;;13.40;99.90;;;;;;4942347;29;20048;-88
2023/04/07 09:58:15;;;;;;;10.85;2.42;;;13.50;99.90;;;;;;4925216;29;20403;-87
2023/04/07 10:00:42;;;;;;;7.43;2.53;;;13.70;99.90;;;;;;4940207;29;20052;-90
2023/04/07 10:03:11;;;;;;;11.43;2.85;;;13.90;99.90;;;;;;4937142;28;20118;-90
2023/04/07 10:05:38;;;;;;;10.32;2.28;;;14.10;99.90;;;;;;4961756;28;20051;-88
2023/04/07 10:08:05;;;;;;;8.35;2.05;;;14.00;99.90;;;;;;4940088;29;20043;-86
2023/04/07 10:10:32;;;;;;;7.05;2.30;;;14.00;99.90;;;;;;4908654;29;20055;-86
2023/04/07 10:12:58;;;;;;;8.50;2.20;;;14.10;99.90;;;;;;4923134;29;20475;-88
2023/04/07 10:15:25;;;;;;;7.05;2.05;;;14.40;99.90;;;;;;4939145;29;20471;-85
2023/04/07 10:17:52;;;;;;;8.27;2.45;;;14.40;99.90;;;;;;4924199;29;20058;-85
2023/04/07 10:20:22;;;;;;;11.88;2.47;;;14.60;99.90;;;;;;4923715;29;20051;-87
2023/04/07 10:22:49;;;;;;;7.10;2.55;;;14.90;99.90;;;;;;4924264;29;20123;-89
2023/04/07 10:25:16;;;;;;;10.77;2.60;;;14.70;99.90;;;;;;4922972;29;20070;-84
2023/04/07 10:27:49;;;;;;;5.97;2.30;;;14.40;99.90;;;;;;4921716;29;20392;-83
2023/04/07 10:30:15;;;;;;;9.85;2.78;;;14.10;99.90;;;;;;4938500;29;20098;-85
2023/04/07 10:32:42;;;;;;;7.75;2.50;;;14.10;99.90;;;;;;4906317;29;20046;-85
2023/04/07 10:35:09;;;;;;;9.85;2.50;;;14.50;99.90;;;;;;4938692;29;20078;-85
2023/04/07 10:37:36;;;;;;;6.45;1.65;;;14.90;99.90;;;;;;4923108;29;20074;-87
2023/04/07 10:40:03;;;;;;;6.65;1.50;;;15.50;99.90;;;;;;4922891;29;20050;-89
2023/04/07 10:42:30;;;;;;;6.60;1.75;;;16.00;99.90;;;;;;4922735;29;20043;-84
2023/04/07 10:44:59;;;;;;;5.03;1.70;;;16.50;99.90;;;;;;4952963;29;20115;-81
2023/04/07 10:47:26;;;;;;;5.65;1.70;;;16.80;99.90;;;;;;4952231;29;20023;-83
2023/04/07 10:49:53;;;;;;;3.70;1.27;;;17.20;99.90;;;;;;4937812;29;20473;-85
2023/04/07 10:52:20;;;;;;;4.85;1.17;;;17.40;99.90;;;;;;4929270;29;20050;-83
2023/04/07 10:54:49;;;;;;;5.20;1.73;;;17.10;99.90;;;;;;4942185;29;20047;-85
2023/04/07 10:57:17;;;;;;;4.45;1.30;;;17.50;99.90;;;;;;4926162;29;20051;-88
2023/04/07 10:59:45;;;;;;;4.32;1.17;;;18.10;99.90;;;;;;4940856;29;20059;-83
2023/04/07 11:02:12;;;;;;;6.10;1.55;;;18.30;99.90;;;;;;4957886;28;20066;-83
2023/04/07 11:04:41;;;;;;;6.38;1.10;;;18.50;95.60;;;;;;4941210;29;20145;-87
2023/04/07 11:07:08;;;;;;;4.15;1.20;;;18.80;94.70;;;;;;4944624;29;20066;-85
2023/04/07 11:09:35;;;;;;;5.25;1.38;;;19.10;94.30;;;;;;4926055;29;20071;-86
2023/04/07 11:12:01;;;;;;;5.10;1.35;;;18.80;89.60;;;;;;4925379;29;20051;-88
2023/04/07 11:14:28;;;;;;;4.03;1.17;;;18.90;94.20;;;;;;4940995;29;20035;-87
2023/04/07 11:16:55;;;;;;;4.15;1.30;;;19.00;87.40;;;;;;4941331;29;20142;-87
2023/04/07 11:19:22;;;;;;;5.25;1.65;;;18.60;90.40;;;;;;4924853;29;20263;-84
2023/04/07 11:21:49;;;;;;;4.85;1.20;;;18.70;93.70;;;;;;4941849;29;20043;-90
2023/04/07 11:27:01;;;;;;;4.75;1.40;;;18.10;90.50;;;;;;4931027;29;20490;-85
2023/04/07 11:29:28;;;;;;;3.90;1.30;;;17.20;92.80;;;;;;4922639;29;20052;-85
2023/04/07 11:31:54;;;;;;;7.10;1.75;;;16.70;96.20;;;;;;4927144;29;20059;-85
2023/04/07 11:34:24;;;;;;;4.70;1.13;;;17.00;93.30;;;;;;4940336;28;20489;-85
2023/04/07 11:36:51;;;;;;;3.50;1.10;;;17.80;92.80;;;;;;4938996;29;20047;-85
2023/04/07 11:39:18;;;;;;;3.40;1.20;;;18.50;93.30;;;;;;4921347;29;20036;-88
2023/04/07 11:41:53;;;;;;;4.38;1.20;;;18.60;91.20;;;;;;4922655;29;20082;-89
2023/04/07 11:44:27;;;;;;;4.93;1.35;;;19.00;88.30;;;;;;4921667;29;20063;-86
2023/04/07 11:46:54;;;;;;;3.72;1.30;;;19.10;87.40;;;;;;4938966;29;20059;-89
2023/04/07 11:49:22;;;;;;;5.30;1.30;;;19.60;87.90;;;;;;4940789;29;20567;-88
2023/04/07 11:51:51;;;;;;;7.65;1.60;;;20.00;80.40;;;;;;4929506;29;20075;-85
2023/04/07 11:54:20;;;;;;;6.80;1.50;;;20.40;80.90;;;;;;4925560;29;20058;-84
2023/04/07 11:56:46;;;;;;;5.80;1.67;;;20.70;76.90;;;;;;4921969;29;20044;-87
2023/04/07 11:59:13;;;;;;;5.65;1.60;;;20.40;71.60;;;;;;4921727;29;20054;-88
2023/04/07 12:01:40;;;;;;;4.65;1.50;;;20.70;75.30;;;;;;4922544;29;20051;-86
2023/04/07 12:04:07;;;;;;;5.85;1.38;;;21.00;72.30;;;;;;4925250;29;20106;-84
2023/04/07 12:06:37;;;;;;;5.45;1.60;;;21.10;72.60;;;;;;4940612;29;20513;-87
2023/04/07 12:09:04;;;;;;;5.80;1.40;;;21.30;76.80;;;;;;4924831;29;20090;-89
2023/04/07 12:11:30;;;;;;;8.23;1.85;;;20.50;76.30;;;;;;4940818;29;20055;-91
2023/04/07 12:17:02;;;;;;;3.47;1.55;;;19.40;71.40;;;;;;4939389;28;20040;-90
2023/04/07 12:19:29;;;;;;;5.32;1.50;;;20.20;73.10;;;;;;4936885;29;20044;-88
2023/04/07 12:21:56;;;;;;;5.13;1.52;;;20.90;68.40;;;;;;4937111;29;20052;-87
2023/04/07 12:27:08;;;;;;;7.05;1.63;;;21.30;64.90;;;;;;4922760;29;20082;-91
2023/04/07 12:29:36;;;;;;;4.65;1.35;;;20.20;70.60;;;;;;4937487;29;20142;-89
2023/04/07 12:32:03;;;;;;;3.97;1.25;;;19.50;68.70;;;;;;4937341;29;20051;-91
2023/04/07 12:34:33;;;;;;;13.23;1.88;;;18.50;72.00;;;;;;4936719;29;20098;-88
2023/04/07 12:37:00;;;;;;;6.32;1.30;;;18.00;73.80;;;;;;4937387;29;20581;-90
2023/04/07 12:39:27;;;;;;;8.93;2.10;;;17.70;71.50;;;;;;4937441;29;20470;-87
2023/04/07 12:42:01;;;;;;;4.22;1.42;;;18.50;77.10;;;;;;4940250;29;20143;-92
2023/04/07 12:47:46;;;;;;;4.63;1.55;;;20.60;68.30;;;;;;4940843;29;20485;-90
2023/04/07 12:50:15;;;;;;;7.35;1.98;;;21.40;65.70;;;;;;4940542;29;20471;-93
2023/04/07 12:52:42;;;;;;;4.93;1.30;;;21.90;65.80;;;;;;4923996;29;20453;-90
2023/04/07 12:58:06;;;;;;;6.07;1.55;;;21.30;61.20;;;;;;4940123;29;20150;-90
2023/04/07 13:00:33;;;;;;;5.10;1.52;;;21.70;64.30;;;;;;4939543;29;20078;-91
2023/04/07 13:03:00;;;;;;;7.80;1.70;;;21.90;58.50;;;;;;4940296;29;20086;-91
2023/04/07 13:05:30;;;;;;;9.30;2.53;;;22.30;62.10;;;;;;4939986;29;20047;-90
2023/04/07 13:07:58;;;;;;;6.78;1.65;;;22.80;59.10;;;;;;4939775;28;20050;-91
2023/04/07 13:10:26;;;;;;;7.03;1.98;;;22.80;60.00;;;;;;4924257;29;20082;-90
2023/04/07 13:12:52;;;;;;;4.05;1.40;;;22.70;58.00;;;;;;4926296;29;20466;-90
2023/04/07 13:18:34;;;;;;;7.28;1.98;;;22.30;58.50;;;;;;4943779;29;20038;-90
2023/04/07 13:21:00;;;;;;;5.15;1.52;;;22.00;59.30;;;;;;4928804;29;20058;-90
2023/04/07 13:23:52;;;;;;;5.47;1.50;;;22.10;59.30;;;;;;4945145;29;20047;-91
2023/04/07 13:26:19;;;;;;;4.85;1.42;;;22.80;61.90;;;;;;4928997;29;20066;-90
2023/04/07 13:28:46;;;;;;;4.82;1.50;;;23.00;59.90;;;;;;4928609;29;20114;-89
2023/04/07 13:31:14;;;;;;;4.40;1.48;;;22.30;59.10;;;;;;4927994;28;20057;-90
2023/04/07 13:36:28;;;;;;;7.18;1.50;;;23.20;59.80;;;;;;4943046;29;20133;-89
2023/04/07 13:38:56;;;;;;;6.55;1.60;;;22.60;60.80;;;;;;4942909;29;20478;-89
2023/04/07 13:41:23;;;;;;;6.40;1.88;;;22.60;60.00;;;;;;4926979;29;20058;-91
2023/04/07 13:46:38;;;;;;;5.50;1.35;;;20.70;60.20;;;;;;4943043;29;20055;-90
2023/04/07 13:49:06;;;;;;;5.35;1.30;;;20.30;65.50;;;;;;4943453;29;20047;-91
2023/04/07 13:51:33;;;;;;;5.72;1.30;;;20.00;62.90;;;;;;4927337;29;20047;-90